Time;durP1;ratioP1;P1;durP2;ratioP2;P2;SDS_P1;SDS_P2;PMS_P1;PMS_P2;Temp;Humidity;BMP_temperature;BMP_pressure;BME280_temperature;BME280_humidity;BME280_pressure;Samples;Min_cycle;Max_cycle;Signal;HPM_P1;HPM_P2
2023/09/22 00:00:15;;;;;;;4.07;2.30;;;;;;;18.84;100.00;97940.66;5036386;28;20678;-84
2023/09/22 00:02:46;;;;;;;3.67;2.03;;;;;;;18.79;100.00;97933.44;5053842;28;20740;-81
2023/09/22 00:05:16;;;;;;;3.80;2.10;;;;;;;18.77;100.00;97934.84;5061805;28;20204;-80
2023/09/22 00:07:43;;;;;;;3.43;2.30;;;;;;;18.76;100.00;97942.19;5061669;28;20284;-80
2023/09/22 00:10:12;;;;;;;3.30;2.27;;;;;;;18.76;100.00;97934.06;5059430;28;20198;-81
2023/09/22 00:12:41;;;;;;;4.67;2.30;;;;;;;18.71;100.00;97934.19;5053566;28;20206;-80
2023/09/22 00:15:10;;;;;;;4.50;2.23;;;;;;;18.64;100.00;97925.72;5053355;28;20207;-80
2023/09/22 00:17:38;;;;;;;4.53;2.20;;;;;;;18.58;100.00;97920.72;5055666;28;20187;-79
2023/09/22 00:20:13;;;;;;;4.57;2.13;;;;;;;18.60;100.00;97927.47;5055710;28;20247;-79
2023/09/22 00:22:42;;;;;;;3.00;2.10;;;;;;;18.59;100.00;97927.75;5060042;28;20204;-81
2023/09/22 00:25:13;;;;;;;5.37;2.50;;;;;;;18.52;100.00;97925.50;5057361;28;20639;-83
2023/09/22 00:27:42;;;;;;;5.63;2.10;;;;;;;18.48;100.00;97933.41;5059110;28;20214;-84
2023/09/22 00:30:10;;;;;;;2.87;2.00;;;;;;;18.50;100.00;97924.97;5062115;28;20209;-82
2023/09/22 00:32:40;;;;;;;4.10;2.23;;;;;;;18.40;100.00;97926.06;5056464;28;20695;-83
2023/09/22 00:35:11;;;;;;;3.50;2.17;;;;;;;18.48;100.00;97929.91;5072931;28;20214;-83
2023/09/22 00:37:42;;;;;;;4.83;2.33;;;;;;;18.35;100.00;97925.38;5073980;28;20257;-84
2023/09/22 00:40:12;;;;;;;4.27;2.03;;;;;;;18.37;100.00;97923.16;5054192;28;20544;-83
2023/09/22 00:42:41;;;;;;;3.63;2.40;;;;;;;18.31;100.00;97924.41;5052698;28;20196;-83
2023/09/22 00:45:09;;;;;;;2.57;2.17;;;;;;;18.31;100.00;97918.97;5052802;28;20231;-83
2023/09/22 00:47:37;;;;;;;5.37;2.13;;;;;;;18.22;100.00;97927.06;5036263;28;20689;-83
2023/09/22 00:50:09;;;;;;;4.30;2.00;;;;;;;18.17;100.00;97926.41;5053874;28;20204;-81
2023/09/22 00:52:39;;;;;;;4.00;2.07;;;;;;;18.16;100.00;97925.59;5052619;28;20191;-84
2023/09/22 00:55:07;;;;;;;2.50;2.10;;;;;;;18.10;100.00;97934.97;5052873;28;20184;-84
2023/09/22 00:57:35;;;;;;;4.27;2.20;;;;;;;18.04;100.00;97934.28;5059134;28;20684;-86
2023/09/22 01:00:04;;;;;;;3.87;2.40;;;;;;;18.00;100.00;97933.31;5060273;28;20212;-84
2023/09/22 01:02:31;;;;;;;7.03;2.30;;;;;;;17.99;100.00;97930.91;5063351;28;20213;-87
2023/09/22 01:05:00;;;;;;;4.17;2.20;;;;;;;17.94;100.00;97931.03;5056089;28;20591;-81
2023/09/22 01:07:27;;;;;;;3.60;2.20;;;;;;;17.91;100.00;97939.78;5057186;28;20202;-82
2023/09/22 01:09:55;;;;;;;2.57;1.97;;;;;;;17.85;100.00;97939.09;5043482;28;20198;-82
2023/09/22 01:12:22;;;;;;;3.83;2.07;;;;;;;17.81;100.00;97921.88;5060915;28;20187;-85
2023/09/22 01:14:50;;;;;;;3.60;2.10;;;;;;;17.81;100.00;97932.69;5049181;28;20222;-85
2023/09/22 01:17:19;;;;;;;5.33;2.07;;;;;;;17.80;100.00;97922.16;5044081;28;20211;-86
2023/09/22 01:19:46;;;;;;;3.67;1.83;;;;;;;17.74;100.00;97926.09;5040662;28;20212;-84
2023/09/22 01:22:13;;;;;;;3.97;2.33;;;;;;;17.69;100.00;97921.59;5036408;28;20264;-87
2023/09/22 01:24:40;;;;;;;4.07;2.07;;;;;;;17.63;100.00;97913.91;5035076;28;20199;-83
2023/09/22 01:27:08;;;;;;;4.77;2.10;;;;;;;17.60;100.00;97915.31;5057042;28;20253;-86
2023/09/22 01:29:37;;;;;;;3.03;2.23;;;;;;;17.54;100.00;97921.94;5044057;28;20275;-83
2023/09/22 01:32:09;;;;;;;3.40;2.10;;;;;;;17.46;100.00;97931.56;5048180;28;20237;-84
2023/09/22 01:34:38;;;;;;;4.07;2.30;;;;;;;17.37;100.00;97930.69;5040989;28;20248;-83
2023/09/22 01:37:07;;;;;;;2.93;2.00;;;;;;;17.30;100.00;97938.44;5058577;28;20198;-82
2023/09/22 01:39:36;;;;;;;3.47;2.10;;;;;;;17.23;100.00;97939.94;5055049;28;20192;-83
2023/09/22 01:42:04;;;;;;;4.03;2.57;;;;;;;17.19;100.00;97937.03;5055061;28;20204;-84
2023/09/22 01:44:31;;;;;;;4.03;2.10;;;;;;;17.13;100.00;97938.25;5034659;28;20269;-85
2023/09/22 01:46:58;;;;;;;4.07;2.20;;;;;;;17.09;100.00;97932.63;5023748;28;20230;-84
2023/09/22 01:49:29;;;;;;;4.37;2.20;;;;;;;17.05;100.00;97933.53;5035095;28;20210;-83
2023/09/22 01:51:56;;;;;;;2.57;1.80;;;;;;;17.00;100.00;97937.16;5042457;28;20192;-83
2023/09/22 01:54:25;;;;;;;5.23;2.20;;;;;;;16.98;100.00;97930.47;5054300;28;20773;-83
2023/09/22 01:56:52;;;;;;;4.07;2.20;;;;;;;16.94;100.00;97937.56;5059796;28;20700;-83
2023/09/22 01:59:22;;;;;;;3.60;2.10;;;;;;;16.89;100.00;97943.09;5050512;28;20211;-83
2023/09/22 02:01:51;;;;;;;6.13;2.20;;;;;;;16.88;100.00;97938.78;5055587;28;20223;-82
2023/09/22 02:04:19;;;;;;;3.17;2.00;;;;;;;16.81;100.00;97936.47;5054789;28;20207;-82
2023/09/22 02:06:46;;;;;;;3.57;2.07;;;;;;;16.75;100.00;97931.47;5058869;28;20199;-81
2023/09/22 02:09:15;;;;;;;5.00;2.07;;;;;;;16.68;100.00;97919.13;5059721;28;20199;-81
2023/09/22 02:11:42;;;;;;;3.87;2.57;;;;;;;16.58;100.00;97913.13;5063360;28;20284;-82
2023/09/22 02:14:10;;;;;;;4.03;2.40;;;;;;;16.53;100.00;97918.59;5059730;28;20751;-82
2023/09/22 02:16:41;;;;;;;3.50;2.20;;;;;;;16.46;100.00;97926.31;5056698;28;20201;-82
2023/09/22 02:19:08;;;;;;;2.93;2.63;;;;;;;16.35;100.00;97928.38;5060868;28;20187;-81
2023/09/22 02:21:37;;;;;;;3.67;2.17;;;;;;;16.24;100.00;97927.75;5055857;28;20242;-83
2023/09/22 02:24:06;;;;;;;3.33;2.10;;;;;;;16.10;100.00;97931.50;5055898;28;20198;-82
2023/09/22 02:26:35;;;;;;;5.83;2.50;;;;;;;15.98;100.00;97932.00;5054380;28;20203;-81
2023/09/22 02:29:04;;;;;;;4.03;2.70;;;;;;;15.82;100.00;97936.81;5056683;28;20209;-81
2023/09/22 02:31:32;;;;;;;2.57;2.10;;;;;;;15.77;100.00;97933.44;5065210;28;20209;-85
2023/09/22 02:33:59;;;;;;;4.40;2.50;;;;;;;15.72;100.00;97930.81;5039165;28;20231;-85
2023/09/22 02:36:28;;;;;;;4.27;2.10;;;;;;;15.66;100.00;97921.97;5051180;28;20213;-86
2023/09/22 02:38:56;;;;;;;3.33;2.40;;;;;;;15.61;100.00;97915.84;5046139;28;20207;-84
2023/09/22 02:41:24;;;;;;;2.73;2.17;;;;;;;15.56;100.00;97924.81;5042486;28;20212;-84
2023/09/22 02:43:52;;;;;;;3.33;2.30;;;;;;;15.51;100.00;97930.28;5030413;28;20225;-84
2023/09/22 02:46:19;;;;;;;3.70;2.33;;;;;;;15.51;100.00;97929.50;5057865;28;20310;-84
2023/09/22 02:48:48;;;;;;;3.43;2.40;;;;;;;15.50;100.00;97934.06;5029409;28;20289;-84
2023/09/22 02:51:16;;;;;;;3.13;2.40;;;;;;;15.46;100.00;97946.53;5029011;28;20214;-84
2023/09/22 02:53:47;;;;;;;3.33;2.40;;;;;;;15.36;100.00;97944.78;5029811;28;20222;-82
2023/09/22 02:56:15;;;;;;;3.60;2.50;;;;;;;15.29;100.00;97949.75;5088912;28;20292;-82
2023/09/22 02:58:45;;;;;;;4.20;2.20;;;;;;;15.27;100.00;97938.41;5059154;28;20255;-82
2023/09/22 03:01:14;;;;;;;2.93;2.40;;;;;;;15.16;100.00;97942.38;5038804;28;20233;-81
2023/09/22 03:03:42;;;;;;;2.97;2.53;;;;;;;15.10;100.00;97948.91;5056067;28;20204;-82
2023/09/22 03:06:12;;;;;;;3.97;2.50;;;;;;;15.02;100.00;97948.75;5039292;28;20197;-82
2023/09/22 03:08:43;;;;;;;4.47;2.53;;;;;;;14.97;100.00;97949.63;5055173;28;20285;-83
2023/09/22 03:11:10;;;;;;;4.67;2.80;;;;;;;14.95;100.00;97941.81;5055053;28;20213;-86
2023/09/22 03:13:40;;;;;;;3.50;2.60;;;;;;;14.92;100.00;97944.28;5061998;28;20656;-85
2023/09/22 03:16:08;;;;;;;4.10;2.83;;;;;;;14.92;100.00;97957.75;5037722;28;20201;-86
2023/09/22 03:18:37;;;;;;;3.10;2.43;;;;;;;14.87;100.00;97958.63;5056717;28;20715;-86
2023/09/22 03:21:05;;;;;;;4.07;2.73;;;;;;;14.86;100.00;97967.00;5022452;28;20313;-86
2023/09/22 03:23:32;;;;;;;4.27;2.70;;;;;;;14.79;100.00;97972.72;5039282;28;20284;-85
2023/09/22 03:26:04;;;;;;;4.17;2.70;;;;;;;14.78;100.00;97981.13;5023128;28;20206;-86
2023/09/22 03:28:33;;;;;;;3.53;2.53;;;;;;;14.75;100.00;97973.56;5030375;28;20202;-86
2023/09/22 03:31:01;;;;;;;4.00;3.13;;;;;;;14.75;100.00;97965.50;5039178;28;20691;-88
2023/09/22 03:33:29;;;;;;;3.20;2.83;;;;;;;14.73;100.00;97973.88;5067994;28;20278;-86
2023/09/22 03:35:57;;;;;;;3.90;2.43;;;;;;;14.71;100.00;97976.06;5041017;28;20207;-85
2023/09/22 03:38:28;;;;;;;4.50;3.00;;;;;;;14.66;100.00;97976.09;5055607;28;20284;-86
2023/09/22 03:41:00;;;;;;;6.07;2.80;;;;;;;14.63;100.00;97989.34;5023796;28;20198;-84
2023/09/22 03:43:29;;;;;;;5.63;2.57;;;;;;;14.60;100.00;97993.44;5023395;28;20226;-85
2023/09/22 03:45:57;;;;;;;3.80;2.93;;;;;;;14.59;100.00;97994.50;5023072;28;20656;-85
2023/09/22 03:48:25;;;;;;;3.87;2.43;;;;;;;14.57;100.00;98003.97;5039187;28;20255;-86
2023/09/22 03:50:57;;;;;;;3.83;2.47;;;;;;;14.54;100.00;98003.44;5055144;28;20198;-84
2023/09/22 03:53:24;;;;;;;5.80;2.73;;;;;;;14.50;100.00;98012.38;5023259;28;20233;-85
2023/09/22 03:55:53;;;;;;;4.67;3.07;;;;;;;14.48;100.00;98009.16;5022690;28;20200;-85
2023/09/22 03:58:21;;;;;;;4.60;2.90;;;;;;;14.45;100.00;98015.13;5039147;28;20194;-84
2023/09/22 04:00:48;;;;;;;6.07;2.80;;;;;;;14.39;100.00;98016.25;5039219;28;20193;-85
2023/09/22 04:03:18;;;;;;;5.33;2.63;;;;;;;14.37;100.00;98026.53;5039361;28;20570;-85
2023/09/22 04:05:48;;;;;;;3.33;2.60;;;;;;;14.37;100.00;98050.78;5023708;28;20190;-85
2023/09/22 04:08:16;;;;;;;4.73;2.83;;;;;;;14.37;100.00;98065.03;5056351;28;20204;-85
2023/09/22 04:10:46;;;;;;;3.80;2.80;;;;;;;14.34;100.00;98065.56;5023686;28;20267;-83
2023/09/22 04:13:14;;;;;;;3.50;2.77;;;;;;;14.32;100.00;98070.44;5039533;28;20707;-84
2023/09/22 04:18:29;;;;;;;5.10;2.83;;;;;;;14.33;100.00;98076.63;4973332;28;20223;-89
2023/09/22 04:20:57;;;;;;;4.13;3.00;;;;;;;14.31;100.00;98085.00;4974786;28;20232;-87
2023/09/22 04:23:28;;;;;;;5.57;2.80;;;;;;;14.36;100.00;98097.66;4989532;28;20201;-88
2023/09/22 04:25:59;;;;;;;3.90;3.10;;;;;;;14.34;100.00;98107.84;4990802;28;20214;-88
2023/09/22 04:28:30;;;;;;;4.47;3.43;;;;;;;14.37;100.00;98108.13;4959044;28;20355;-88
2023/09/22 04:31:01;;;;;;;6.73;3.40;;;;;;;14.37;100.00;98110.81;4959734;28;20193;-88
2023/09/22 04:33:32;;;;;;;4.87;3.63;;;;;;;14.39;100.00;98118.63;4953937;28;20784;-88
2023/09/22 04:35:59;;;;;;;4.53;3.60;;;;;;;14.40;100.00;98128.34;4989881;28;20209;-87
2023/09/22 04:38:26;;;;;;;5.60;3.50;;;;;;;14.41;100.00;98129.94;4958880;28;20299;-88
2023/09/22 04:41:01;;;;;;;6.73;3.73;;;;;;;14.41;100.00;98138.84;4958203;28;20204;-89
2023/09/22 04:43:29;;;;;;;5.07;3.47;;;;;;;14.42;100.00;98132.34;4958043;28;20302;-88
2023/09/22 04:46:00;;;;;;;5.80;3.80;;;;;;;14.46;100.00;98151.47;4962691;28;20226;-89
2023/09/22 04:48:28;;;;;;;6.93;3.90;;;;;;;14.47;100.00;98148.47;4974047;28;20211;-89
2023/09/22 04:51:04;;;;;;;7.37;4.30;;;;;;;14.50;100.00;98145.25;4973973;28;20240;-89
2023/09/22 04:53:47;;;;;;;6.87;3.50;;;;;;;14.58;100.00;98167.28;4984002;28;20216;-88
2023/09/22 04:56:23;;;;;;;5.60;4.03;;;;;;;14.61;100.00;98156.72;4977106;28;20281;-88
2023/09/22 04:58:56;;;;;;;5.60;4.00;;;;;;;14.63;100.00;98154.56;4963418;28;20200;-87
2023/09/22 05:01:24;;;;;;;4.80;4.00;;;;;;;14.69;100.00;98153.47;4990051;28;20200;-88
2023/09/22 05:03:56;;;;;;;5.13;3.90;;;;;;;14.76;100.00;98148.53;4993862;28;20210;-88
2023/09/22 05:06:24;;;;;;;4.03;3.63;;;;;;;14.78;100.00;98145.56;4977211;28;20200;-88
2023/09/22 05:08:55;;;;;;;5.87;3.40;;;;;;;14.86;100.00;98156.53;4967912;28;20579;-88
2023/09/22 05:11:29;;;;;;;5.57;3.40;;;;;;;14.91;100.00;98153.00;4993014;28;20199;-88
2023/09/22 05:14:03;;;;;;;5.63;3.50;;;;;;;14.93;100.00;98148.91;4989341;28;20208;-88
2023/09/22 05:16:36;;;;;;;4.57;3.57;;;;;;;14.98;100.00;98156.16;4977228;28;20282;-89
2023/09/22 05:19:25;;;;;;;4.23;3.33;;;;;;;15.04;100.00;98182.00;4979734;28;20657;-88
2023/09/22 05:21:53;;;;;;;4.97;3.77;;;;;;;15.09;100.00;98164.97;4992911;28;20224;-89
2023/09/22 05:24:24;;;;;;;5.47;3.20;;;;;;;15.17;100.00;98177.84;4961821;28;20202;-88
2023/09/22 05:26:52;;;;;;;5.93;4.00;;;;;;;15.24;100.00;98181.03;4961432;28;20200;-88
2023/09/22 05:29:23;;;;;;;6.33;3.73;;;;;;;15.34;100.00;98189.03;4976566;28;20679;-89
2023/09/22 05:31:54;;;;;;;4.07;3.40;;;;;;;15.43;100.00;98177.31;4992642;28;20200;-90
2023/09/22 05:34:22;;;;;;;4.60;3.07;;;;;;;15.49;100.00;98171.88;4976956;28;20579;-88
2023/09/22 05:36:49;;;;;;;6.63;3.30;;;;;;;15.46;100.00;98183.22;4971579;28;20669;-87
2023/09/22 05:39:20;;;;;;;4.17;3.43;;;;;;;15.48;100.00;98187.25;4978140;28;20200;-87
2023/09/22 05:41:48;;;;;;;4.73;3.40;;;;;;;15.56;100.00;98186.66;4977963;28;20579;-86
2023/09/22 05:44:18;;;;;;;4.57;3.17;;;;;;;15.59;100.00;98188.78;4975087;28;20212;-87
2023/09/22 05:46:52;;;;;;;5.17;3.40;;;;;;;15.74;100.00;98194.00;4989477;28;20210;-87
2023/09/22 05:49:31;;;;;;;4.50;3.10;;;;;;;15.81;100.00;98185.56;4993686;28;20298;-87
2023/09/22 05:52:03;;;;;;;5.17;3.50;;;;;;;15.86;100.00;98191.69;4976015;28;20207;-87
2023/09/22 05:54:35;;;;;;;3.60;3.00;;;;;;;15.92;100.00;98199.75;5007506;28;20227;-87
2023/09/22 05:57:03;;;;;;;6.00;3.20;;;;;;;15.95;100.00;98205.38;4993470;28;20206;-87
2023/09/22 05:59:37;;;;;;;6.50;3.23;;;;;;;16.05;100.00;98217.97;4990686;28;20673;-88
2023/09/22 06:02:05;;;;;;;5.93;3.07;;;;;;;16.09;100.00;98205.50;4992005;28;20278;-87
2023/09/22 06:04:34;;;;;;;4.93;2.77;;;;;;;16.18;100.00;98203.75;4992270;28;20266;-87
2023/09/22 06:07:03;;;;;;;5.80;4.03;;;;;;;16.24;100.00;98216.09;4992435;28;20575;-86
2023/09/22 06:09:32;;;;;;;4.97;2.77;;;;;;;16.31;100.00;98227.34;4992423;28;20226;-88
2023/09/22 06:12:01;;;;;;;4.67;3.40;;;;;;;16.35;100.00;98219.47;4981601;28;20212;-89
2023/09/22 06:14:30;;;;;;;6.70;3.40;;;;;;;16.44;100.00;98221.22;4999088;28;20230;-87
2023/09/22 06:16:57;;;;;;;7.57;3.10;;;;;;;16.54;100.00;98223.78;4975723;28;20779;-88
2023/09/22 06:19:25;;;;;;;6.00;3.03;;;;;;;16.54;100.00;98228.38;4974799;28;20684;-86
2023/09/22 06:21:55;;;;;;;6.77;3.20;;;;;;;16.59;100.00;98234.56;4975915;28;20204;-86
2023/09/22 06:24:22;;;;;;;9.27;3.20;;;;;;;16.71;100.00;98240.34;4977150;28;20315;-87
2023/09/22 06:26:50;;;;;;;7.73;3.40;;;;;;;16.91;100.00;98243.84;4991118;28;20273;-86
2023/09/22 06:29:19;;;;;;;5.93;3.13;;;;;;;17.07;100.00;98243.31;4990767;28;20206;-85
2023/09/22 06:31:48;;;;;;;6.03;2.90;;;;;;;17.29;100.00;98248.09;4969942;28;20641;-86
2023/09/22 06:34:19;;;;;;;5.43;2.70;;;;;;;17.50;100.00;98249.34;4988820;28;20251;-86
2023/09/22 06:36:55;;;;;;;5.83;2.70;;;;;;;17.68;100.00;98263.97;4991640;28;20197;-87
2023/09/22 06:39:25;;;;;;;4.87;2.60;;;;;;;17.79;100.00;98272.69;4992530;28;20208;-87
2023/09/22 06:41:55;;;;;;;6.17;3.17;;;;;;;17.98;100.00;98273.41;4975845;28;20204;-87
2023/09/22 06:44:23;;;;;;;3.97;2.60;;;;;;;18.16;100.00;98275.22;5007784;28;20211;-87
2023/09/22 06:46:50;;;;;;;4.93;2.70;;;;;;;18.30;100.00;98286.06;4991315;28;20207;-87
2023/09/22 06:49:24;;;;;;;5.27;2.67;;;;;;;18.42;100.00;98305.38;5007737;28;20200;-85
2023/09/22 06:51:51;;;;;;;4.50;2.43;;;;;;;18.56;100.00;98300.75;4975011;28;20264;-88
2023/09/22 06:54:19;;;;;;;6.03;2.67;;;;;;;18.79;100.00;98313.28;4972259;28;20217;-86
2023/09/22 06:56:47;;;;;;;7.43;2.60;;;;;;;19.01;100.00;98306.28;5007673;28;20676;-85
2023/09/22 06:59:17;;;;;;;5.40;2.70;;;;;;;19.27;100.00;98310.81;4976662;28;20224;-86
2023/09/22 07:01:46;;;;;;;4.27;2.77;;;;;;;19.53;100.00;98308.31;5007358;28;20233;-86
2023/09/22 07:04:19;;;;;;;3.70;2.37;;;;;;;19.85;100.00;98301.78;4985193;28;20301;-86
2023/09/22 07:06:47;;;;;;;4.83;2.50;;;;;;;20.09;100.00;98296.00;5010205;28;20737;-87
2023/09/22 07:09:14;;;;;;;6.07;2.60;;;;;;;20.34;100.00;98308.94;4994397;28;20223;-86
2023/09/22 07:11:53;;;;;;;4.77;2.50;;;;;;;20.46;100.00;98314.56;4994406;28;20207;-85
2023/09/22 07:14:21;;;;;;;6.20;2.53;;;;;;;20.65;100.00;98317.00;4995180;28;20213;-86
2023/09/22 07:16:52;;;;;;;5.37;2.87;;;;;;;20.96;100.00;98317.69;5010045;28;20239;-85
2023/09/22 07:19:19;;;;;;;4.23;2.50;;;;;;;21.24;100.00;98315.50;4987179;28;20280;-85
2023/09/22 07:21:49;;;;;;;5.50;2.60;;;;;;;21.43;100.00;98315.19;4994814;28;20201;-85
2023/09/22 07:24:16;;;;;;;7.68;2.58;;;;;;;21.64;100.00;98316.13;4994949;28;20210;-84
2023/09/22 07:26:44;;;;;;;3.95;2.53;;;;;;;21.83;100.00;98300.22;4993692;28;20198;-85
2023/09/22 07:29:12;;;;;;;6.25;2.42;;;;;;;21.99;100.00;98299.69;4978048;28;20627;-84
2023/09/22 07:31:44;;;;;;;4.03;2.60;;;;;;;22.11;100.00;98291.66;4992287;28;20199;-85
2023/09/22 07:34:14;;;;;;;4.03;2.55;;;;;;;22.15;100.00;98290.66;4977831;28;20274;-86
2023/09/22 07:36:42;;;;;;;4.20;2.60;;;;;;;22.14;100.00;98280.88;4975286;28;20335;-86
2023/09/22 07:39:09;;;;;;;4.55;2.70;;;;;;;22.06;100.00;98270.81;4977706;28;20200;-85
2023/09/22 07:41:39;;;;;;;3.40;2.65;;;;;;;22.05;100.00;98265.66;4977612;28;20207;-85
2023/09/22 07:44:09;;;;;;;4.35;2.40;;;;;;;22.00;100.00;98282.22;4976834;28;20200;-86
2023/09/22 07:46:41;;;;;;;3.17;2.53;;;;;;;22.03;100.00;98306.91;4977137;28;20210;-86
2023/09/22 07:49:08;;;;;;;2.83;2.47;;;;;;;22.14;100.00;98315.53;4994846;28;20207;-85
2023/09/22 07:51:44;;;;;;;6.25;2.63;;;;;;;22.15;100.00;98317.13;4977320;28;20223;-86
2023/09/22 07:54:13;;;;;;;3.83;2.38;;;;;;;22.20;100.00;98306.84;4975198;28;20322;-86
2023/09/22 07:56:48;;;;;;;3.63;3.30;;;;;;;22.34;100.00;98318.34;4992211;28;20301;-85
2023/09/22 07:59:17;;;;;;;3.65;2.70;;;;;;;22.43;100.00;98326.50;4980287;28;20186;-86
2023/09/22 08:01:45;;;;;;;4.43;3.20;;;;;;;22.51;100.00;98331.09;4995125;28;20225;-86
2023/09/22 08:04:13;;;;;;;5.63;2.83;;;;;;;22.59;100.00;98321.25;5000237;28;20208;-85
2023/09/22 08:06:40;;;;;;;4.45;2.42;;;;;;;22.71;100.00;98327.66;5008802;28;20203;-87
2023/09/22 08:09:12;;;;;;;3.75;2.50;;;;;;;22.78;100.00;98316.19;4977091;28;20668;-86
2023/09/22 08:11:43;;;;;;;4.75;2.38;;;;;;;22.97;100.00;98315.75;4993457;28;20536;-86
2023/09/22 08:14:10;;;;;;;4.57;2.50;;;;;;;23.03;100.00;98296.13;4988801;28;20306;-85
2023/09/22 08:16:47;;;;;;;3.15;2.20;;;;;;;23.12;100.00;98294.13;4992563;28;20236;-86
2023/09/22 08:19:14;;;;;;;2.92;2.47;;;;;;;23.22;100.00;98301.91;4962421;28;20671;-86
2023/09/22 08:21:42;;;;;;;4.30;2.17;;;;;;;23.28;100.00;98303.28;4996884;28;20199;-85
2023/09/22 08:24:11;;;;;;;3.20;2.03;;;;;;;23.32;100.00;98308.91;4977088;28;20207;-86
2023/09/22 08:26:41;;;;;;;2.25;1.90;;;;;;;23.47;100.00;98297.34;4976694;28;20216;-86
2023/09/22 08:29:10;;;;;;;3.00;2.10;;;;;;;23.55;100.00;98299.22;4994343;28;20227;-85
2023/09/22 08:31:38;;;;;;;2.50;2.15;;;;;;;23.46;100.00;98298.53;4976558;28;20193;-86
2023/09/22 08:34:05;;;;;;;4.28;2.28;;;;;;;;;;4976710;28;20196;-86
2023/09/22 08:36:33;;;;;;;4.13;2.08;;;;;;;23.65;100.00;98307.03;4992778;28;20234;-85
2023/09/22 08:39:02;;;;;;;4.93;2.28;;;;;;;23.67;100.00;98293.00;4992997;28;20203;-85
2023/09/22 08:41:32;;;;;;;2.38;2.17;;;;;;;23.66;100.00;98300.38;4976246;28;20210;-86
2023/09/22 08:43:59;;;;;;;3.70;2.20;;;;;;;23.77;100.00;98291.75;4960999;28;20214;-85
2023/09/22 08:46:30;;;;;;;2.45;2.22;;;;;;;23.85;100.00;98288.13;4993741;28;20218;-85
2023/09/22 08:49:09;;;;;;;4.90;2.20;;;;;;;23.95;100.00;98277.56;4963408;28;20207;-85
2023/09/22 08:51:37;;;;;;;2.90;2.03;;;;;;;24.04;100.00;98271.97;4992964;28;20202;-84
2023/09/22 08:54:05;;;;;;;3.92;2.10;;;;;;;23.87;100.00;98274.94;4979194;28;20223;-85
2023/09/22 08:56:39;;;;;;;2.42;2.00;;;;;;;24.08;100.00;98268.22;5002221;28;20223;-85
2023/09/22 08:59:10;;;;;;;2.92;1.95;;;;;;;24.21;100.00;98266.34;4977446;28;20204;-86
2023/09/22 09:01:42;;;;;;;4.00;2.38;;;;;;;24.29;100.00;98265.44;4960515;28;20207;-86
2023/09/22 09:04:37;;;;;;;2.85;2.55;;;;;;;24.37;100.00;98272.72;4991574;28;20201;-85
2023/09/22 09:07:08;;;;;;;2.80;2.10;;;;;;;24.43;100.00;98268.63;4976715;28;20206;-86
2023/09/22 09:09:44;;;;;;;3.95;2.10;;;;;;;24.51;100.00;98264.16;4992585;28;20213;-86
2023/09/22 09:12:20;;;;;;;2.60;2.20;;;;;;;24.54;100.00;98267.00;4993407;28;20206;-85
2023/09/22 09:14:49;;;;;;;3.92;1.98;;;;;;;24.76;100.00;98271.22;4960676;28;20637;-85
2023/09/22 09:17:20;;;;;;;4.15;2.03;;;;;;;24.88;100.00;98271.19;4976458;28;20243;-86
2023/09/22 09:19:56;;;;;;;2.58;1.83;;;;;;;25.02;100.00;98270.81;4992334;28;20206;-88
2023/09/22 09:22:35;;;;;;;4.43;1.90;;;;;;;25.10;100.00;98271.84;4975918;28;20195;-86
2023/09/22 09:25:09;;;;;;;2.22;2.03;;;;;;;25.29;100.00;98261.81;4972503;28;20202;-86
2023/09/22 09:27:44;;;;;;;3.53;2.30;;;;;;;25.41;100.00;98258.25;4960093;28;20676;-86
2023/09/22 09:30:15;;;;;;;5.00;2.00;;;;;;;25.64;100.00;98261.22;4972140;28;20192;-86
2023/09/22 09:32:47;;;;;;;5.65;2.10;;;;;;;25.77;100.00;98249.84;4992162;28;20204;-85
2023/09/22 09:35:28;;;;;;;3.90;1.88;;;;;;;26.05;100.00;98249.75;4993354;28;20269;-85
2023/09/22 09:38:17;;;;;;;2.83;1.88;;;;;;;26.07;100.00;98246.69;5001110;28;20672;-86
2023/09/22 09:40:45;;;;;;;2.08;1.95;;;;;;;26.14;100.00;98244.09;4976002;28;20195;-86
2023/09/22 09:43:17;;;;;;;3.05;2.08;;;;;;;26.22;100.00;98237.69;4992654;28;20200;-87
2023/09/22 09:45:57;;;;;;;3.13;1.90;;;;;;;26.20;100.00;98229.75;4991827;28;20271;-85
2023/09/22 09:48:27;;;;;;;3.75;1.90;;;;;;;26.17;100.00;98232.41;4960674;28;20223;-85
2023/09/22 09:50:59;;;;;;;3.33;1.70;;;;;;;26.23;100.00;98231.00;4994197;28;20672;-84
2023/09/22 09:53:50;;;;;;;4.18;1.90;;;;;;;26.33;100.00;98238.72;4975742;28;20226;-86
2023/09/22 09:56:20;;;;;;;1.98;1.60;;;;;;;26.43;100.00;98249.16;4976340;28;20234;-86
2023/09/22 09:58:50;;;;;;;4.88;1.77;;;;;;;26.40;100.00;98240.84;4991618;28;20195;-85
2023/09/22 10:01:19;;;;;;;3.60;1.80;;;;;;;26.41;100.00;98234.19;4976058;28;20202;-85
2023/09/22 10:03:48;;;;;;;2.35;1.52;;;;;;;26.52;98.81;98221.50;4991658;28;20280;-85
2023/09/22 10:06:17;;;;;;;2.42;1.75;;;;;;;26.61;99.89;98222.09;4991356;28;20204;-85
2023/09/22 10:08:47;;;;;;;2.40;1.52;;;;;;;26.67;99.70;98218.72;4975687;28;20204;-85
2023/09/22 10:11:17;;;;;;;2.40;1.50;;;;;;;26.70;97.85;98217.97;4990909;28;20204;-84
2023/09/22 10:13:45;;;;;;;3.08;1.58;;;;;;;26.72;99.26;98215.69;5007173;28;20196;-85
2023/09/22 10:16:32;;;;;;;5.82;1.80;;;;;;;26.70;98.55;98208.94;4991783;28;21092;-84
2023/09/22 10:19:02;;;;;;;2.25;1.77;;;;;;;26.71;99.76;98216.03;4973363;28;20207;-85
2023/09/22 10:21:41;;;;;;;2.05;1.60;;;;;;;26.78;97.74;98224.44;4988291;28;20669;-78
2023/09/22 10:24:23;;;;;;;3.53;1.50;;;;;;;26.81;97.80;98220.16;4991977;28;20230;-77
2023/09/22 10:26:55;;;;;;;2.88;1.52;;;;;;;26.64;96.44;98216.66;4985594;28;20204;-78
2023/09/22 10:29:32;;;;;;;3.53;1.65;;;;;;;26.68;99.07;98217.56;4991825;28;20190;-78
2023/09/22 10:32:18;;;;;;;1.58;1.40;;;;;;;26.62;95.51;98208.00;4987656;28;20196;-78
2023/09/22 10:35:00;;;;;;;3.08;1.38;;;;;;;26.33;97.78;98203.00;4991649;28;20669;-78
2023/09/22 10:37:29;;;;;;;2.17;1.50;;;;;;;26.46;99.74;98209.19;4992074;28;20223;-78
2023/09/22 10:40:12;;;;;;;1.73;1.60;;;;;;;26.68;99.25;98219.50;4995122;28;20246;-77
2023/09/22 10:42:50;;;;;;;2.45;1.70;;;;;;;26.81;99.00;98214.66;4995261;28;20279;-78
2023/09/22 10:45:21;;;;;;;3.72;1.60;;;;;;;26.86;99.41;98206.19;4991021;28;20659;-78
2023/09/22 10:47:51;;;;;;;1.92;1.50;;;;;;;26.88;98.11;98207.38;4995038;28;20195;-78
2023/09/22 10:50:26;;;;;;;2.55;1.63;;;;;;;26.99;100.00;98202.91;4995557;28;20247;-79
2023/09/22 10:53:00;;;;;;;2.75;1.70;;;;;;;27.00;100.00;98192.72;4994920;28;20309;-78
2023/09/22 10:55:37;;;;;;;3.05;1.60;;;;;;;27.11;100.00;98186.25;4994317;28;20696;-78
2023/09/22 10:58:10;;;;;;;2.33;1.60;;;;;;;27.10;100.00;98181.16;4994145;28;20199;-78
2023/09/22 11:00:58;;;;;;;2.35;1.38;;;;;;;27.12;100.00;98173.31;4995413;28;20258;-78
2023/09/22 11:03:27;;;;;;;2.33;1.40;;;;;;;27.35;100.00;98171.41;4991446;28;20199;-78
2023/09/22 11:06:06;;;;;;;2.83;1.77;;;;;;;27.92;100.00;98175.19;4994673;28;20192;-78
2023/09/22 11:08:46;;;;;;;4.28;1.70;;;;;;;27.91;98.32;98176.34;4993842;28;20207;-78
2023/09/22 11:11:16;;;;;;;4.18;1.52;;;;;;;28.03;98.57;98168.69;4992594;28;20219;-78
2023/09/22 11:13:52;;;;;;;3.65;1.90;;;;;;;28.09;98.14;98176.63;4994186;28;20699;-78
2023/09/22 11:16:22;;;;;;;2.90;1.73;;;;;;;28.24;97.26;98181.19;4990227;28;21665;-78
2023/09/22 11:18:53;;;;;;;3.92;1.73;;;;;;;28.40;97.68;98177.13;4991491;28;20199;-78
2023/09/22 11:21:21;;;;;;;2.10;1.60;;;;;;;28.58;97.41;98174.63;4993305;28;20273;-78
2023/09/22 11:23:54;;;;;;;2.97;1.70;;;;;;;29.01;94.82;98186.22;4994378;28;20282;-77
2023/09/22 11:26:25;;;;;;;4.15;1.73;;;;;;;29.36;91.36;98178.38;4994723;28;20223;-78
2023/09/22 11:28:52;;;;;;;4.13;1.75;;;;;;;29.50;89.27;98172.19;4991215;28;20204;-78
2023/09/22 11:31:20;;;;;;;3.35;1.70;;;;;;;29.82;87.87;98167.75;4994501;28;20204;-80
2023/09/22 11:34:08;;;;;;;2.95;1.48;;;;;;;29.87;83.19;98153.59;4994858;28;20274;-77
2023/09/22 11:36:48;;;;;;;3.03;1.63;;;;;;;29.98;76.75;98153.72;4994513;28;20210;-77
2023/09/22 11:39:26;;;;;;;3.08;1.52;;;;;;;29.94;74.47;98158.44;4994563;28;20696;-78
2023/09/22 11:41:55;;;;;;;3.67;1.63;;;;;;;30.12;72.92;98143.59;4994617;28;20196;-77
2023/09/22 11:44:24;;;;;;;4.07;1.50;;;;;;;30.24;71.42;98152.72;4994217;28;20196;-78